createdAt,value
2023-03-17T00:00:32.872Z,7.57
2023-03-17T00:02:36.362Z,9.13
2023-03-17T00:04:41.670Z,7.53
2023-03-17T00:06:45.268Z,7.43
2023-03-17T00:08:48.954Z,6.70
2023-03-17T00:10:52.895Z,7.83
2023-03-17T00:12:56.968Z,8.90
2023-03-17T00:15:02.552Z,7.47
2023-03-17T00:17:06.779Z,7.10
2023-03-17T00:19:12.027Z,7.60
2023-03-17T00:21:17.998Z,10.50
2023-03-17T00:23:22.638Z,7.53
2023-03-17T00:25:29.171Z,7.03
2023-03-17T00:28:31.227Z,8.13
2023-03-17T00:30:34.796Z,8.43
2023-03-17T00:32:39.917Z,8.30
2023-03-17T00:34:45.697Z,7.97
2023-03-17T00:36:51.124Z,7.37
2023-03-17T00:38:54.612Z,7.77
2023-03-17T00:45:18.970Z,7.57
2023-03-17T00:47:23.242Z,9.20
2023-03-17T00:49:27.044Z,7.50
2023-03-17T00:54:57.953Z,7.37
2023-03-17T00:57:01.371Z,8.50
2023-03-17T00:59:05.127Z,7.43
2023-03-17T01:01:08.757Z,7.40
2023-03-17T01:03:17.732Z,8.87
2023-03-17T01:05:21.287Z,8.87
2023-03-17T01:07:24.847Z,7.93
2023-03-17T01:09:28.836Z,8.13
2023-03-17T01:12:26.684Z,8.07
2023-03-17T01:14:31.878Z,8.23
2023-03-17T01:16:35.246Z,8.07
2023-03-17T01:18:39.809Z,6.73
2023-03-17T01:21:37.171Z,7.20
2023-03-17T01:23:40.725Z,8.17
2023-03-17T01:25:44.742Z,11.43
2023-03-17T01:27:51.093Z,7.67
2023-03-17T01:29:56.883Z,8.47
2023-03-17T01:32:34.818Z,8.70
2023-03-17T01:34:38.102Z,6.63
2023-03-17T01:36:42.096Z,7.73
2023-03-17T01:38:52.820Z,9.40
2023-03-17T01:40:57.056Z,8.03
2023-03-17T01:59:09.845Z,7.37
2023-03-17T02:01:14.292Z,8.17
2023-03-17T02:03:20.040Z,8.53
2023-03-17T02:05:24.680Z,8.27
2023-03-17T02:07:35.140Z,8.47
2023-03-17T02:09:39.096Z,10.23
2023-03-17T02:11:42.465Z,6.73
2023-03-17T02:13:49.811Z,7.57
2023-03-17T02:15:54.675Z,7.30
2023-03-17T02:17:58.920Z,7.33
2023-03-17T02:20:40.886Z,7.83
2023-03-17T02:22:46.784Z,7.07
2023-03-17T02:24:52.216Z,9.93
2023-03-17T02:26:59.536Z,7.60
2023-03-17T02:29:05.374Z,6.83
2023-03-17T02:31:09.663Z,6.87
2023-03-17T02:33:13.230Z,7.73
2023-03-17T02:35:16.607Z,6.40
2023-03-17T02:37:39.830Z,7.03
2023-03-17T02:39:44.674Z,7.03
2023-03-17T02:41:48.135Z,7.23
2023-03-17T02:43:58.926Z,9.23
2023-03-17T02:46:02.460Z,7.30
2023-03-17T02:48:06.493Z,8.40
2023-03-17T02:50:10.986Z,5.83
2023-03-17T02:52:14.386Z,6.53
2023-03-17T02:54:17.880Z,8.43
2023-03-17T02:56:22.793Z,8.20
2023-03-17T02:58:56.006Z,7.37
2023-03-17T03:00:59.667Z,6.70
2023-03-17T03:03:03.161Z,7.40
2023-03-17T03:05:07.673Z,8.03
2023-03-17T03:07:11.615Z,7.97
2023-03-17T03:09:15.023Z,7.33
2023-03-17T03:11:18.857Z,8.53
2023-03-17T03:13:26.519Z,7.43
2023-03-17T03:15:31.054Z,8.93
2023-03-17T03:18:12.488Z,7.90
2023-03-17T03:20:16.335Z,6.20
2023-03-17T03:22:20.107Z,6.73
2023-03-17T03:24:23.615Z,6.47
2023-03-17T03:26:27.471Z,8.17
2023-03-17T03:28:32.420Z,6.93
2023-03-17T04:11:09.898Z,7.30
2023-03-17T04:13:15.636Z,6.80
2023-03-17T04:15:19.838Z,7.50
2023-03-17T04:17:23.293Z,6.10
2023-03-17T04:19:30.623Z,7.13
2023-03-17T04:21:34.086Z,9.33
2023-03-17T04:23:37.672Z,9.13
2023-03-17T04:25:41.086Z,6.57
2023-03-17T04:27:44.580Z,6.47
2023-03-17T04:29:50.638Z,12.90
2023-03-17T04:31:54.541Z,7.83
2023-03-17T04:34:46.560Z,6.70
2023-03-17T04:36:50.071Z,6.63
2023-03-17T04:38:53.569Z,6.33
2023-03-17T04:40:57.093Z,6.40
2023-03-17T04:43:03.285Z,6.93
2023-03-17T04:47:09.125Z,6.70
2023-03-17T04:49:12.511Z,9.37
2023-03-17T04:51:15.712Z,8.07
2023-03-17T04:53:22.518Z,8.57
2023-03-17T04:55:26.194Z,7.70
2023-03-17T04:57:29.720Z,6.57
2023-03-17T04:59:33.119Z,8.23
2023-03-17T05:01:39.071Z,6.40
2023-03-17T05:03:47.466Z,6.23
2023-03-17T05:55:30.024Z,6.33
2023-03-17T05:57:33.581Z,7.93
2023-03-17T05:59:37.495Z,8.23
2023-03-17T06:01:41.286Z,7.73
2023-03-17T06:03:46.427Z,7.40
2023-03-17T06:05:50.144Z,6.87
2023-03-17T06:07:56.385Z,7.10
2023-03-17T06:10:00.581Z,7.27
2023-03-17T06:12:06.828Z,8.20
2023-03-17T06:14:10.720Z,7.07
2023-03-17T06:16:55.695Z,8.30
2023-03-17T06:18:59.249Z,9.63
2023-03-17T06:21:02.950Z,6.63
2023-03-17T06:23:07.138Z,8.23
2023-03-17T06:25:11.593Z,7.33
2023-03-17T06:27:16.847Z,7.73
2023-03-17T06:29:20.796Z,6.83
2023-03-17T06:31:24.530Z,10.00
2023-03-17T06:33:30.378Z,10.23
2023-03-17T06:35:35.311Z,6.97
2023-03-17T06:37:39.383Z,7.60
2023-03-17T06:39:43.379Z,8.63
2023-03-17T06:41:47.600Z,7.60
2023-03-17T06:43:52.978Z,6.50
2023-03-17T06:50:18.149Z,7.68
2023-03-17T06:52:21.969Z,7.57
2023-03-17T06:54:26.407Z,8.07
2023-03-17T06:56:38.605Z,7.40
2023-03-17T06:58:42.403Z,7.47
2023-03-17T07:00:49.199Z,7.47
2023-03-17T07:02:52.892Z,9.93
2023-03-17T07:04:57.927Z,7.13
2023-03-17T07:07:13.882Z,8.23
2023-03-17T07:09:17.774Z,8.02
2023-03-17T07:11:32.922Z,7.03
2023-03-17T07:13:38.989Z,6.93
2023-03-17T07:15:42.922Z,7.53
2023-03-17T07:17:48.184Z,8.85
2023-03-17T07:19:52.467Z,7.55
2023-03-17T07:21:56.631Z,8.07
2023-03-17T07:24:13.093Z,8.90
2023-03-17T07:26:16.493Z,7.38
2023-03-17T07:28:21.863Z,7.75
2023-03-17T07:30:25.557Z,10.07
2023-03-17T07:32:29.607Z,7.57
2023-03-17T07:34:35.042Z,8.90
2023-03-17T07:36:39.034Z,7.15
2023-03-17T07:39:39.887Z,6.95
2023-03-17T07:41:44.302Z,7.47
2023-03-17T07:43:48.233Z,11.20
2023-03-17T07:45:53.323Z,8.20
2023-03-17T07:47:57.126Z,8.60
2023-03-17T07:50:02.111Z,9.43
2023-03-17T07:52:06.678Z,9.50
2023-03-17T07:54:11.216Z,8.38
2023-03-17T07:56:15.530Z,8.60
2023-03-17T07:58:34.928Z,12.23
2023-03-17T08:00:38.453Z,8.63
2023-03-17T08:02:42.528Z,7.70
2023-03-17T08:04:46.964Z,8.70
2023-03-17T08:06:52.636Z,7.97
2023-03-17T08:08:56.736Z,9.32
2023-03-17T08:11:03.859Z,7.53
2023-03-17T08:13:07.957Z,7.70
2023-03-17T08:15:27.046Z,8.63
2023-03-17T08:17:30.911Z,9.20
2023-03-17T08:19:35.023Z,7.93
2023-03-17T08:21:38.925Z,8.30
2023-03-17T08:23:45.015Z,8.35
2023-03-17T08:25:49.048Z,9.82
2023-03-17T08:27:52.849Z,9.63
2023-03-17T08:29:58.051Z,9.18
2023-03-17T08:32:04.534Z,10.13
2023-03-17T08:34:08.809Z,8.57
2023-03-17T08:36:13.015Z,8.52
2023-03-17T08:38:16.836Z,9.73
2023-03-17T08:40:22.486Z,7.72
2023-03-17T08:42:26.440Z,10.82
2023-03-17T08:44:30.410Z,8.75
2023-03-17T08:46:34.167Z,7.63
2023-03-17T08:48:38.556Z,13.05
2023-03-17T08:50:42.568Z,8.75
2023-03-17T08:52:47.029Z,10.05
2023-03-17T08:54:50.808Z,9.80
2023-03-17T08:56:56.017Z,8.10
2023-03-17T08:59:00.647Z,9.10
2023-03-17T09:01:05.217Z,9.18
2023-03-17T09:03:09.784Z,12.48
2023-03-17T09:05:13.971Z,10.95
2023-03-17T09:07:17.617Z,11.75
2023-03-17T09:09:25.417Z,10.90
2023-03-17T09:11:36.331Z,8.05
2023-03-17T09:13:41.892Z,8.60
2023-03-17T09:15:45.935Z,9.73
2023-03-17T09:17:49.666Z,9.30
2023-03-17T09:19:53.763Z,8.45
2023-03-17T09:21:57.914Z,9.88
2023-03-17T09:24:02.742Z,8.38
2023-03-17T09:26:07.777Z,7.70
2023-03-17T09:28:12.857Z,11.02
2023-03-17T09:30:19.121Z,9.25
2023-03-17T09:32:23.016Z,9.63
2023-03-17T09:34:27.109Z,8.00
2023-03-17T09:36:31.250Z,8.98
2023-03-17T09:38:36.539Z,7.60
2023-03-17T09:40:46.885Z,8.60
2023-03-17T09:42:59.618Z,10.52
2023-03-17T09:45:08.933Z,8.80
2023-03-17T09:47:21.737Z,8.60
2023-03-17T09:49:39.419Z,8.38
2023-03-17T09:51:43.335Z,8.15
2023-03-17T09:53:50.295Z,10.73
2023-03-17T09:55:56.893Z,9.73
2023-03-17T09:58:01.128Z,10.82
2023-03-17T10:00:08.033Z,7.43
2023-03-17T10:02:19.421Z,7.78
2023-03-17T10:04:23.258Z,8.93
2023-03-17T10:06:34.951Z,8.18
2023-03-17T10:08:39.174Z,9.00
2023-03-17T10:10:46.781Z,8.90
2023-03-17T10:12:57.625Z,7.85
2023-03-17T10:15:03.877Z,8.98
2023-03-17T10:17:18.959Z,7.35
2023-03-17T10:19:27.165Z,8.60
2023-03-17T10:21:33.153Z,8.40
2023-03-17T10:23:37.444Z,10.65
2023-03-17T10:25:41.783Z,7.78
2023-03-17T10:27:47.626Z,8.52
2023-03-17T10:29:52.813Z,7.28
2023-03-17T10:31:58.770Z,8.73
2023-03-17T10:34:13.396Z,10.55
2023-03-17T10:36:18.019Z,8.73
2023-03-17T10:38:22.866Z,9.45
2023-03-17T10:40:28.813Z,8.18
2023-03-17T10:42:36.224Z,12.25
2023-03-17T10:44:43.186Z,9.15
2023-03-17T10:46:47.064Z,8.57
2023-03-17T10:48:55.092Z,7.55
2023-03-17T10:51:00.519Z,7.50
2023-03-17T10:53:07.748Z,9.15
2023-03-17T10:55:14.699Z,10.43
2023-03-17T10:57:18.671Z,8.32
2023-03-17T10:59:28.129Z,7.95
2023-03-17T11:01:35.702Z,7.15
2023-03-17T11:03:40.761Z,9.57
2023-03-17T11:05:46.091Z,7.15
2023-03-17T11:07:58.841Z,7.60
2023-03-17T11:10:03.494Z,7.97
2023-03-17T11:12:09.641Z,8.00
2023-03-17T11:14:14.836Z,11.20
2023-03-17T11:16:23.520Z,7.88
2023-03-17T11:18:31.360Z,7.32
2023-03-17T11:20:46.007Z,8.50
2023-03-17T11:22:54.929Z,10.27
2023-03-17T11:25:00.995Z,8.45
2023-03-17T11:27:07.583Z,7.78
2023-03-17T11:29:22.648Z,10.18
2023-03-17T11:31:28.722Z,7.40
2023-03-17T11:33:37.717Z,11.25
2023-03-17T11:35:48.657Z,12.15
2023-03-17T11:38:07.796Z,8.05
2023-03-17T11:40:18.247Z,7.60
2023-03-17T11:42:22.782Z,10.32
2023-03-17T11:44:48.072Z,7.55
2023-03-17T11:46:53.582Z,7.00
2023-03-17T11:48:59.693Z,10.07
2023-03-17T11:51:04.723Z,7.95
2023-03-17T11:53:23.202Z,7.88
2023-03-17T11:55:27.967Z,7.15
2023-03-17T11:57:33.270Z,8.20
2023-03-17T11:59:38.339Z,8.70
2023-03-17T12:01:48.901Z,9.80
2023-03-17T12:03:55.428Z,9.43
2023-03-17T12:06:02.258Z,10.38
2023-03-17T12:08:07.689Z,8.48
2023-03-17T12:10:18.209Z,7.47
2023-03-17T12:12:25.182Z,6.97
2023-03-17T12:14:31.030Z,10.00
2023-03-17T12:16:37.480Z,8.48
2023-03-17T12:18:43.155Z,9.32
2023-03-17T12:20:50.023Z,7.13
2023-03-17T12:22:57.134Z,8.43
2023-03-17T12:25:07.029Z,8.73
2023-03-17T12:27:15.612Z,8.52
2023-03-17T12:29:21.089Z,8.90
2023-03-17T12:31:27.226Z,7.03
2023-03-17T12:33:32.376Z,7.35
2023-03-17T12:35:37.414Z,6.55
2023-03-17T12:37:41.704Z,8.70
2023-03-17T12:39:50.958Z,10.63
2023-03-17T12:42:20.355Z,7.13
2023-03-17T12:44:31.086Z,8.93
2023-03-17T12:46:59.873Z,10.18
2023-03-17T12:49:21.108Z,9.65
2023-03-17T12:51:33.512Z,9.00
2023-03-17T12:53:38.712Z,7.78
2023-03-17T12:55:42.522Z,10.30
2023-03-17T12:57:48.941Z,11.63
2023-03-17T12:59:58.949Z,8.63
2023-03-17T13:02:15.710Z,8.20
2023-03-17T13:04:22.508Z,7.97
2023-03-17T13:06:26.487Z,9.85
2023-03-17T13:08:32.023Z,8.65
2023-03-17T13:10:41.822Z,11.65
2023-03-17T13:13:10.085Z,9.02
2023-03-17T13:15:24.402Z,9.18
2023-03-17T13:17:41.084Z,12.20
2023-03-17T13:19:49.223Z,8.25
2023-03-17T13:21:59.257Z,9.88
2023-03-17T13:24:25.901Z,9.65
2023-03-17T13:26:55.477Z,8.48
2023-03-17T13:29:01.770Z,9.68
2023-03-17T13:31:13.415Z,11.20
2023-03-17T13:33:23.282Z,8.60
2023-03-17T13:35:39.335Z,8.65
2023-03-17T13:38:00.371Z,11.35
2023-03-17T13:40:13.000Z,8.90
2023-03-17T13:42:38.628Z,12.88
2023-03-17T13:45:03.254Z,9.68
2023-03-17T13:47:28.508Z,10.60
2023-03-17T13:49:32.447Z,11.15
2023-03-17T13:51:36.824Z,9.75
2023-03-17T13:53:43.005Z,9.77
2023-03-17T13:56:14.590Z,9.23
2023-03-17T13:58:26.487Z,12.02
2023-03-17T14:00:31.744Z,8.20
2023-03-17T14:02:36.734Z,7.85
2023-03-17T14:04:46.500Z,9.93
2023-03-17T14:06:51.015Z,8.80
2023-03-17T14:08:55.429Z,9.40
2023-03-17T14:11:01.001Z,8.60
2023-03-17T14:13:09.627Z,7.93
2023-03-17T14:15:17.974Z,9.65
2023-03-17T14:17:26.091Z,11.52
2023-03-17T14:19:30.361Z,7.68
2023-03-17T14:21:34.316Z,11.20
2023-03-17T14:23:39.212Z,8.88
2023-03-17T14:25:44.469Z,9.30
2023-03-17T14:27:49.753Z,11.00
2023-03-17T14:29:55.280Z,9.57
2023-03-17T14:32:04.390Z,7.80
2023-03-17T14:34:15.347Z,8.23
2023-03-17T14:36:19.623Z,9.05
2023-03-17T14:38:24.476Z,8.55
2023-03-17T14:40:29.316Z,9.60
2023-03-17T14:42:33.353Z,8.48
2023-03-17T14:44:40.435Z,8.77
2023-03-17T14:46:45.578Z,8.93
2023-03-17T14:48:50.562Z,9.20
2023-03-17T14:51:06.839Z,11.43
2023-03-17T14:53:10.987Z,10.48
2023-03-17T14:55:15.845Z,9.40
2023-03-17T14:57:19.579Z,9.82
2023-03-17T14:59:25.471Z,10.40
2023-03-17T15:01:36.280Z,11.63
2023-03-17T15:03:42.312Z,9.48
2023-03-17T15:05:46.898Z,8.98
2023-03-17T15:07:52.229Z,9.25
2023-03-17T15:10:01.895Z,10.15
2023-03-17T15:12:07.607Z,14.15
2023-03-17T15:14:21.237Z,9.05
2023-03-17T15:16:26.434Z,8.57
2023-03-17T15:18:30.691Z,9.30
2023-03-17T15:20:35.681Z,8.23
2023-03-17T15:22:42.912Z,10.00
2023-03-17T15:24:51.168Z,10.07
2023-03-17T15:27:05.116Z,9.50
2023-03-17T15:29:08.957Z,7.63
2023-03-17T15:31:13.661Z,9.48
2023-03-17T15:33:22.044Z,13.32
2023-03-17T15:35:27.424Z,11.23
2023-03-17T15:37:32.406Z,9.40
2023-03-17T15:39:36.304Z,8.57
2023-03-17T15:41:42.086Z,8.50
2023-03-17T15:43:45.986Z,8.73
2023-03-17T15:45:53.422Z,8.77
2023-03-17T15:47:58.526Z,10.38
2023-03-17T15:50:04.615Z,8.32
2023-03-17T15:52:18.204Z,11.05
2023-03-17T15:54:22.542Z,11.18
2023-03-17T15:56:29.465Z,10.70
2023-03-17T15:58:35.359Z,10.20
2023-03-17T16:00:39.276Z,8.98
2023-03-17T16:02:43.104Z,9.65
2023-03-17T16:04:47.089Z,8.35
2023-03-17T16:06:52.328Z,11.15
2023-03-17T16:08:56.278Z,14.27
2023-03-17T16:11:00.325Z,9.85
2023-03-17T16:13:04.278Z,9.82
2023-03-17T16:15:22.596Z,10.82
2023-03-17T16:17:30.812Z,11.38
2023-03-17T16:19:35.924Z,11.05
2023-03-17T16:21:39.726Z,7.35
2023-03-17T16:23:44.042Z,12.20
2023-03-17T16:25:48.689Z,8.48
2023-03-17T16:27:52.797Z,8.57
2023-03-17T16:29:56.532Z,8.15
2023-03-17T16:32:01.876Z,8.80
2023-03-17T16:34:11.926Z,11.48
2023-03-17T16:36:18.074Z,12.50
2023-03-17T16:38:23.435Z,11.30
2023-03-17T16:40:28.062Z,9.43
2023-03-17T16:42:32.699Z,12.20
2023-03-17T16:44:36.828Z,15.65
2023-03-17T16:46:45.278Z,10.73
2023-03-17T16:48:51.482Z,10.15
2023-03-17T16:50:54.910Z,10.73
2023-03-17T16:52:59.108Z,15.73
2023-03-17T16:55:03.412Z,9.70
2023-03-17T16:57:08.073Z,12.30
2023-03-17T16:59:20.991Z,11.45
2023-03-17T17:01:26.823Z,10.20
2023-03-17T17:03:31.364Z,12.93
2023-03-17T17:05:37.273Z,10.82
2023-03-17T17:07:41.256Z,12.98
2023-03-17T17:09:44.827Z,9.88
2023-03-17T17:11:48.541Z,11.05
2023-03-17T17:13:52.085Z,10.77
2023-03-17T17:15:56.891Z,11.57
2023-03-17T17:18:03.442Z,12.90
2023-03-17T17:20:09.355Z,13.82
2023-03-17T17:22:15.919Z,15.30
2023-03-17T17:24:20.917Z,12.63
2023-03-17T17:26:31.205Z,12.70
2023-03-17T17:28:36.916Z,12.45
2023-03-17T17:30:46.307Z,9.82
2023-03-17T17:32:51.415Z,10.43
2023-03-17T17:34:56.545Z,10.45
2023-03-17T17:37:00.886Z,9.63
2023-03-17T17:39:07.258Z,10.70
2023-03-17T17:41:12.825Z,11.43
2023-03-17T17:43:18.408Z,16.17
2023-03-17T17:45:24.547Z,11.43
2023-03-17T17:47:32.237Z,13.00
2023-03-17T17:49:37.257Z,9.30
2023-03-17T17:51:41.576Z,12.25
2023-03-17T17:53:45.828Z,13.80
2023-03-17T17:55:53.243Z,12.15
2023-03-17T17:57:59.692Z,12.38
2023-03-17T18:00:08.606Z,12.48
2023-03-17T18:02:14.070Z,10.55
2023-03-17T18:04:18.654Z,14.43
2023-03-17T18:06:23.122Z,11.25
2023-03-17T18:08:27.298Z,13.55
2023-03-17T18:10:32.664Z,11.35
2023-03-17T18:12:39.132Z,11.45
2023-03-17T18:14:43.949Z,12.98
2023-03-17T18:16:50.020Z,12.02
2023-03-17T18:18:54.882Z,13.15
2023-03-17T18:21:00.343Z,12.95
2023-03-17T18:23:05.449Z,7.88
2023-03-17T18:25:11.418Z,10.75
2023-03-17T18:27:16.085Z,11.85
2023-03-17T18:29:21.898Z,10.07
2023-03-17T18:31:28.190Z,9.98
2023-03-17T18:33:32.792Z,12.27
2023-03-17T18:35:37.915Z,13.65
2023-03-17T18:37:42.164Z,9.68
2023-03-17T18:39:55.526Z,10.18
2023-03-17T18:42:14.365Z,8.90
2023-03-17T18:44:22.572Z,9.38
2023-03-17T18:46:28.257Z,6.97
2023-03-17T18:48:36.585Z,7.78
2023-03-17T18:50:44.299Z,10.90
2023-03-17T18:52:50.335Z,11.50
2023-03-17T18:55:10.571Z,9.40
2023-03-17T18:57:24.198Z,8.27
2023-03-17T18:59:42.113Z,14.45
2023-03-17T19:02:01.097Z,11.80
2023-03-17T19:04:20.525Z,9.65
2023-03-17T19:06:33.422Z,11.48
2023-03-17T19:08:51.645Z,10.48
2023-03-17T19:11:19.301Z,9.68
2023-03-17T19:13:28.169Z,11.70
2023-03-17T19:15:50.468Z,10.82
2023-03-17T19:18:06.005Z,11.07
2023-03-17T19:20:24.047Z,11.10
2023-03-17T19:22:36.542Z,10.73
2023-03-17T19:24:52.769Z,13.23
2023-03-17T19:27:12.239Z,12.30
2023-03-17T19:29:29.458Z,10.88
2023-03-17T19:31:49.419Z,11.27
2023-03-17T19:34:14.590Z,11.80
2023-03-17T19:36:31.893Z,12.63
2023-03-17T19:38:53.042Z,9.10
2023-03-17T19:41:07.687Z,11.13
2023-03-17T19:43:40.427Z,12.98
2023-03-17T19:46:00.675Z,11.50
2023-03-17T19:48:16.560Z,11.32
2023-03-17T19:50:42.578Z,10.15
2023-03-17T19:52:58.616Z,10.98
2023-03-17T19:55:24.389Z,10.57
2023-03-17T19:57:44.578Z,11.20
2023-03-17T20:00:03.863Z,9.55
2023-03-17T20:02:18.019Z,11.57
2023-03-17T20:04:37.087Z,10.00
2023-03-17T20:06:45.164Z,14.18
2023-03-17T20:08:51.842Z,9.40
2023-03-17T20:11:07.962Z,10.45
2023-03-17T20:13:13.129Z,9.85
2023-03-17T20:15:26.552Z,12.00
2023-03-17T20:17:38.800Z,11.57
2023-03-17T20:19:49.637Z,11.15
2023-03-17T20:22:03.134Z,11.48
2023-03-17T20:24:15.434Z,12.18
2023-03-17T20:26:27.009Z,12.10
2023-03-17T20:28:30.546Z,13.40
2023-03-17T20:30:35.800Z,11.73
2023-03-17T20:32:42.377Z,12.30
2023-03-17T20:34:47.084Z,11.63
2023-03-17T20:36:57.647Z,13.07
2023-03-17T20:39:03.368Z,11.90
2023-03-17T20:41:09.485Z,11.95
2023-03-17T20:43:14.093Z,10.90
2023-03-17T20:45:18.888Z,14.93
2023-03-17T20:47:22.235Z,12.15
2023-03-17T20:49:25.507Z,11.65
2023-03-17T20:51:28.995Z,13.27
2023-03-17T20:53:36.479Z,11.85
2023-03-17T20:55:43.300Z,11.85
2023-03-17T20:57:52.905Z,16.45
2023-03-17T20:59:58.433Z,16.92
2023-03-17T21:02:02.184Z,15.00
2023-03-17T21:04:09.236Z,12.30
2023-03-17T21:06:13.034Z,15.75
2023-03-17T21:08:17.540Z,16.58
2023-03-17T21:10:21.222Z,12.20
2023-03-17T21:12:27.693Z,11.68
2023-03-17T21:14:31.214Z,13.52
2023-03-17T21:16:35.093Z,13.73
2023-03-17T21:18:38.538Z,10.93
2023-03-17T21:20:51.301Z,14.27
2023-03-17T21:22:54.987Z,14.00
2023-03-17T21:24:58.303Z,10.20
2023-03-17T21:27:02.403Z,10.98
2023-03-17T21:29:07.331Z,11.50
2023-03-17T21:31:10.586Z,14.65
2023-03-17T21:33:14.124Z,12.07
2023-03-17T21:35:18.282Z,11.40
2023-03-17T21:37:27.413Z,12.00
2023-03-17T21:39:30.633Z,10.23
2023-03-17T21:41:35.870Z,11.25
2023-03-17T21:43:39.154Z,13.15
2023-03-17T21:45:44.456Z,14.07
2023-03-17T21:47:49.451Z,11.35
2023-03-17T21:49:54.119Z,12.95
2023-03-17T21:52:07.395Z,11.07
2023-03-17T21:54:10.607Z,12.13
2023-03-17T21:56:14.206Z,12.68
2023-03-17T21:58:18.047Z,11.60
2023-03-17T22:00:23.620Z,11.88
2023-03-17T22:02:29.991Z,10.57
2023-03-17T22:04:33.644Z,9.90
2023-03-17T22:06:36.951Z,10.85
2023-03-17T22:08:40.659Z,11.40
2023-03-17T22:10:48.478Z,11.35
2023-03-17T22:12:52.252Z,11.85
2023-03-17T22:14:57.869Z,12.63
2023-03-17T22:17:01.889Z,11.57
2023-03-17T22:19:07.320Z,11.73
2023-03-17T22:21:11.012Z,12.07
2023-03-17T22:23:14.561Z,9.15
2023-03-17T22:25:21.129Z,13.30
2023-03-17T22:27:25.943Z,12.23
2023-03-17T22:29:29.715Z,12.68
2023-03-17T22:31:34.945Z,10.55
2023-03-17T22:33:38.866Z,12.80
2023-03-17T22:35:43.924Z,11.00
2023-03-17T22:37:47.531Z,15.30
2023-03-17T22:40:02.586Z,13.00
2023-03-17T22:42:06.638Z,11.63
2023-03-17T22:44:10.247Z,13.43
2023-03-17T22:46:13.976Z,11.30
2023-03-17T22:48:17.319Z,13.77
2023-03-17T22:50:20.779Z,13.88
2023-03-17T22:52:25.507Z,12.32
2023-03-17T22:54:29.865Z,10.48
2023-03-17T22:56:33.307Z,10.68
2023-03-17T22:58:37.369Z,10.45
2023-03-17T23:00:42.582Z,10.90
2023-03-17T23:02:46.518Z,13.65
2023-03-17T23:04:50.540Z,12.63
2023-03-17T23:06:56.540Z,13.93
2023-03-17T23:09:01.408Z,13.70
2023-03-17T23:11:06.202Z,13.15
2023-03-17T23:13:10.080Z,15.98
2023-03-17T23:15:13.654Z,14.45
2023-03-17T23:17:17.157Z,15.02
2023-03-17T23:19:21.419Z,13.15
2023-03-17T23:21:27.887Z,15.30
2023-03-17T23:23:47.299Z,15.05
2023-03-17T23:25:52.219Z,17.13
2023-03-17T23:27:55.869Z,13.18
2023-03-17T23:29:59.463Z,12.80
2023-03-17T23:32:03.998Z,10.10
2023-03-17T23:34:07.941Z,9.80
2023-03-17T23:39:37.188Z,9.98
2023-03-17T23:41:41.963Z,9.90
2023-03-17T23:43:46.870Z,10.80
2023-03-17T23:45:53.052Z,10.88
2023-03-17T23:48:53.576Z,9.10
2023-03-17T23:50:57.503Z,14.90
2023-03-17T23:53:01.461Z,12.63
2023-03-17T23:55:06.164Z,11.57
2023-03-17T23:57:11.253Z,11.73
2023-03-17T23:59:14.755Z,12.38
